createdAt,value
2018-06-28T00:00:41.553Z,42.60
2018-06-28T00:03:09.805Z,42.60
2018-06-28T00:05:37.987Z,42.70
2018-06-28T00:08:06.220Z,42.40
2018-06-28T00:10:34.425Z,42.70
2018-06-28T00:13:03.013Z,42.60
2018-06-28T00:15:31.195Z,42.50
2018-06-28T00:17:59.463Z,42.60
2018-06-28T00:20:27.703Z,42.80
2018-06-28T00:22:55.923Z,43.00
2018-06-28T00:27:52.114Z,43.10
2018-06-28T00:30:20.319Z,43.10
2018-06-28T00:32:48.582Z,43.10
2018-06-28T00:35:16.786Z,43.20
2018-06-28T00:37:45.023Z,43.40
2018-06-28T00:40:13.227Z,43.70
2018-06-28T00:42:41.487Z,43.80
2018-06-28T00:45:10.003Z,43.50
2018-06-28T00:47:38.263Z,44.40
2018-06-28T00:50:06.552Z,44.10
2018-06-28T00:52:34.817Z,43.90
2018-06-28T00:55:03.004Z,43.80
2018-06-28T00:57:31.214Z,44.10
2018-06-28T00:59:59.428Z,44.20
2018-06-28T01:02:27.598Z,44.50
2018-06-28T01:04:55.787Z,44.50
2018-06-28T01:07:24.007Z,45.00
2018-06-28T01:09:52.214Z,44.90
2018-06-28T01:12:20.410Z,44.90
2018-06-28T01:14:48.627Z,45.30
2018-06-28T01:17:16.815Z,45.60
2018-06-28T01:19:45.026Z,45.80
2018-06-28T01:22:13.202Z,45.60
2018-06-28T01:24:41.463Z,46.00
2018-06-28T01:27:09.659Z,46.20
2018-06-28T01:29:37.930Z,46.50
2018-06-28T01:32:06.166Z,46.80
2018-06-28T01:34:34.867Z,46.80
2018-06-28T01:37:03.154Z,47.80
2018-06-28T01:39:31.360Z,46.80
2018-06-28T01:42:11.072Z,47.40
2018-06-28T01:44:39.307Z,46.80
2018-06-28T01:47:07.488Z,46.90
2018-06-28T01:49:35.698Z,46.80
2018-06-28T01:52:03.871Z,46.60
2018-06-28T01:54:32.103Z,46.70
2018-06-28T01:57:00.378Z,47.50
2018-06-28T01:59:28.587Z,47.80
2018-06-28T02:01:56.754Z,48.30
2018-06-28T02:04:24.958Z,48.90
2018-06-28T02:06:53.181Z,49.20
2018-06-28T02:09:21.374Z,48.80
2018-06-28T02:11:49.646Z,49.30
2018-06-28T02:14:17.838Z,49.50
2018-06-28T02:16:46.063Z,49.40
2018-06-28T02:19:14.270Z,49.50
2018-06-28T02:21:42.467Z,49.50
2018-06-28T02:24:10.722Z,50.00
2018-06-28T02:26:39.002Z,49.90
2018-06-28T02:29:07.175Z,49.90
2018-06-28T02:31:35.369Z,50.30
2018-06-28T02:34:03.553Z,50.60
2018-06-28T02:36:31.758Z,50.40
2018-06-28T02:38:59.950Z,50.90
2018-06-28T02:41:28.163Z,50.70
2018-06-28T02:43:56.352Z,51.10
2018-06-28T02:46:24.606Z,51.60
2018-06-28T02:48:52.799Z,51.10
2018-06-28T02:51:20.996Z,50.80
2018-06-28T02:53:49.197Z,50.70
2018-06-28T02:56:17.406Z,50.70
2018-06-28T02:58:45.597Z,50.40
2018-06-28T03:01:13.771Z,50.50
2018-06-28T03:03:41.971Z,50.60
2018-06-28T03:06:10.191Z,50.90
2018-06-28T03:08:38.444Z,50.50
2018-06-28T03:11:06.729Z,50.30
2018-06-28T03:13:34.914Z,50.20
2018-06-28T03:16:03.123Z,50.00
2018-06-28T03:18:31.307Z,49.70
2018-06-28T03:20:59.529Z,49.70
2018-06-28T03:23:27.726Z,49.60
2018-06-28T03:25:56.003Z,49.30
2018-06-28T03:28:24.270Z,49.20
2018-06-28T03:30:52.560Z,49.00
2018-06-28T03:33:20.715Z,48.90
2018-06-28T03:35:48.903Z,48.90
2018-06-28T03:38:17.195Z,48.60
2018-06-28T03:40:45.436Z,48.70
2018-06-28T03:43:13.735Z,48.60
2018-06-28T03:45:41.990Z,48.60
2018-06-28T03:48:10.199Z,48.70
2018-06-28T03:50:38.462Z,48.80
2018-06-28T03:53:06.723Z,48.70
2018-06-28T03:55:34.938Z,48.70
2018-06-28T03:58:03.215Z,48.80
2018-06-28T04:00:31.474Z,49.10
2018-06-28T04:02:59.729Z,49.30
2018-06-28T04:05:27.996Z,50.10
2018-06-28T04:07:56.229Z,50.30
2018-06-28T04:10:24.949Z,50.70
2018-06-28T04:12:53.243Z,51.20
2018-06-28T04:15:21.489Z,50.70
2018-06-28T04:17:49.743Z,50.40
2018-06-28T04:20:17.994Z,50.20
2018-06-28T04:22:46.215Z,50.60
2018-06-28T04:25:14.466Z,50.30
2018-06-28T04:27:42.684Z,50.90
2018-06-28T04:30:10.954Z,51.20
2018-06-28T04:32:39.320Z,51.80
2018-06-28T04:35:07.595Z,51.60
2018-06-28T04:37:35.829Z,51.30
2018-06-28T04:40:04.059Z,51.40
2018-06-28T04:42:32.382Z,51.40
2018-06-28T04:45:00.612Z,52.10
2018-06-28T04:47:28.851Z,51.90
2018-06-28T04:49:57.072Z,52.60
2018-06-28T04:52:26.079Z,52.70
2018-06-28T04:54:54.323Z,52.50
2018-06-28T04:57:22.508Z,52.40
2018-06-28T04:59:50.702Z,52.60
2018-06-28T05:02:18.986Z,52.40
2018-06-28T05:04:47.211Z,52.90
2018-06-28T05:07:15.403Z,53.30
2018-06-28T05:09:43.642Z,53.50
2018-06-28T05:12:11.839Z,54.10
2018-06-28T05:14:40.058Z,54.20
2018-06-28T05:17:08.349Z,53.40
2018-06-28T05:19:36.497Z,53.20
2018-06-28T05:22:04.967Z,53.20
2018-06-28T05:24:33.146Z,52.90
2018-06-28T05:27:01.359Z,52.80
2018-06-28T05:29:29.566Z,53.30
2018-06-28T05:31:57.781Z,53.60
2018-06-28T05:34:25.982Z,53.20
2018-06-28T05:36:54.188Z,53.00
2018-06-28T05:39:22.361Z,52.00
2018-06-28T05:41:50.547Z,51.20
2018-06-28T05:44:18.834Z,51.00
2018-06-28T05:46:47.037Z,50.60
2018-06-28T05:49:15.298Z,50.70
2018-06-28T05:51:43.615Z,51.20
2018-06-28T05:54:11.898Z,51.30
2018-06-28T05:56:40.003Z,51.70
2018-06-28T05:59:08.248Z,51.40
2018-06-28T06:01:36.661Z,51.30
2018-06-28T06:04:04.877Z,50.30
2018-06-28T06:06:33.072Z,50.10
2018-06-28T06:09:01.365Z,49.20
2018-06-28T06:14:05.039Z,49.40
2018-06-28T06:16:33.382Z,50.30
2018-06-28T06:19:01.598Z,50.90
2018-06-28T06:21:29.890Z,50.90
2018-06-28T06:23:58.284Z,50.60
2018-06-28T06:26:26.540Z,49.40
2018-06-28T06:28:54.766Z,49.20
2018-06-28T06:31:23.026Z,48.20
2018-06-28T06:33:51.286Z,46.90
2018-06-28T06:36:19.534Z,46.50
2018-06-28T06:38:47.791Z,46.20
2018-06-28T06:43:44.022Z,44.40
2018-06-28T06:46:12.314Z,45.80
2018-06-28T06:48:40.764Z,46.70
2018-06-28T06:51:08.936Z,46.90
2018-06-28T06:53:37.211Z,47.10
2018-06-28T06:56:05.471Z,46.80
2018-06-28T06:58:33.715Z,46.80
2018-06-28T07:01:02.064Z,46.50
2018-06-28T07:03:30.227Z,46.10
2018-06-28T07:05:58.430Z,46.30
2018-06-28T07:08:26.779Z,46.50
2018-06-28T07:10:55.085Z,46.40
2018-06-28T07:13:23.306Z,45.80
2018-06-28T07:15:51.551Z,44.80
2018-06-28T07:18:19.726Z,45.00
2018-06-28T07:20:47.987Z,44.40
2018-06-28T07:23:16.280Z,44.40
2018-06-28T07:25:44.499Z,43.70
2018-06-28T07:28:12.712Z,44.30
2018-06-28T07:30:40.952Z,43.60
2018-06-28T07:33:09.291Z,43.70
2018-06-28T07:35:37.418Z,42.90
2018-06-28T07:38:05.834Z,43.80
2018-06-28T07:40:34.094Z,43.90
2018-06-28T07:43:02.387Z,43.80
2018-06-28T07:47:58.614Z,42.60
2018-06-28T07:50:26.875Z,42.80
2018-06-28T07:52:55.181Z,42.30
2018-06-28T07:55:23.571Z,42.70
2018-06-28T07:57:51.729Z,42.40
2018-06-28T08:00:19.998Z,42.00
2018-06-28T08:02:48.251Z,43.00
2018-06-28T08:05:16.471Z,42.70
2018-06-28T08:07:44.768Z,42.90
2018-06-28T08:10:13.043Z,45.70
2018-06-28T08:12:41.285Z,47.30
2018-06-28T08:15:09.507Z,47.50
2018-06-28T08:17:37.734Z,47.40
2018-06-28T08:20:06.327Z,47.60
2018-06-28T08:22:34.599Z,47.20
2018-06-28T08:25:02.939Z,47.70
2018-06-28T08:27:31.111Z,47.70
2018-06-28T08:29:59.692Z,48.30
2018-06-28T08:32:28.054Z,48.30
2018-06-28T08:34:56.526Z,50.10
2018-06-28T08:37:24.763Z,51.60
2018-06-28T08:39:52.978Z,54.30
2018-06-28T08:42:21.251Z,57.70
2018-06-28T08:44:49.558Z,60.00
2018-06-28T08:47:17.776Z,63.80
2018-06-28T08:49:46.027Z,62.90
2018-06-28T08:52:14.310Z,66.60
2018-06-28T08:54:42.498Z,67.20
2018-06-28T08:57:10.720Z,67.30
2018-06-28T08:59:38.952Z,66.60
2018-06-28T09:02:07.171Z,67.20
2018-06-28T09:04:35.401Z,67.20
2018-06-28T09:07:03.650Z,68.00
2018-06-28T09:09:31.881Z,71.60
2018-06-28T09:12:00.084Z,70.20
2018-06-28T09:14:28.299Z,68.20
2018-06-28T09:16:56.555Z,68.10
2018-06-28T09:19:24.830Z,66.10
2018-06-28T09:21:53.050Z,64.20
2018-06-28T09:24:21.267Z,62.30
2018-06-28T09:26:49.479Z,64.30
2018-06-28T09:29:17.693Z,61.50
2018-06-28T09:31:45.913Z,62.50
2018-06-28T09:34:14.139Z,61.20
2018-06-28T09:36:42.354Z,62.20
2018-06-28T09:39:11.342Z,62.30
2018-06-28T09:41:39.619Z,63.70
2018-06-28T09:44:07.794Z,63.00
2018-06-28T09:46:36.071Z,64.60
2018-06-28T09:49:04.289Z,64.80
2018-06-28T09:51:32.479Z,67.80
2018-06-28T09:54:00.669Z,66.90
2018-06-28T09:58:56.877Z,70.50
2018-06-28T10:01:25.086Z,72.30
2018-06-28T10:03:53.284Z,73.00
2018-06-28T10:06:21.574Z,69.00
2018-06-28T10:08:49.777Z,70.30
2018-06-28T10:11:17.994Z,71.90
2018-06-28T10:13:46.290Z,70.70
2018-06-28T10:16:15.377Z,68.40
2018-06-28T10:18:43.602Z,71.10
2018-06-28T10:23:39.762Z,67.50
2018-06-28T10:26:07.975Z,65.10
2018-06-28T10:28:36.190Z,65.80
2018-06-28T10:31:04.399Z,62.30
2018-06-28T10:33:32.699Z,61.40
2018-06-28T10:36:00.930Z,60.70
2018-06-28T10:38:29.125Z,64.40
2018-06-28T10:40:57.413Z,65.30
2018-06-28T10:43:25.579Z,61.20
2018-06-28T10:45:53.778Z,61.80
2018-06-28T10:48:21.973Z,64.80
2018-06-28T10:50:50.154Z,64.00
2018-06-28T10:53:18.347Z,66.40
2018-06-28T10:55:46.566Z,66.80
2018-06-28T10:58:14.774Z,64.30
2018-06-28T11:00:42.985Z,66.00
2018-06-28T11:03:11.236Z,67.80
2018-06-28T11:05:40.150Z,67.80
2018-06-28T11:08:08.421Z,68.90
2018-06-28T11:10:38.430Z,68.60
2018-06-28T11:13:06.782Z,68.60
2018-06-28T11:15:35.058Z,67.70
2018-06-28T11:18:03.327Z,67.20
2018-06-28T11:20:31.562Z,64.40
2018-06-28T11:22:59.840Z,65.50
2018-06-28T11:27:56.032Z,68.50
2018-06-28T11:30:24.378Z,69.30
2018-06-28T11:32:52.586Z,70.60
2018-06-28T11:35:20.838Z,72.50
2018-06-28T11:37:49.121Z,73.00
2018-06-28T11:40:17.434Z,74.20
2018-06-28T11:42:45.693Z,72.70
2018-06-28T11:45:14.014Z,77.30
2018-06-28T11:47:42.327Z,81.10
2018-06-28T11:50:10.566Z,79.40
2018-06-28T11:52:38.782Z,83.00
2018-06-28T11:55:07.019Z,85.40
2018-06-28T11:57:35.237Z,86.40
2018-06-28T12:00:03.687Z,87.10
2018-06-28T12:02:38.618Z,80.80
2018-06-28T12:05:06.983Z,76.10
2018-06-28T12:07:35.205Z,75.00
2018-06-28T12:10:03.567Z,77.50
2018-06-28T12:12:31.779Z,77.60
2018-06-28T12:15:00.079Z,75.50
2018-06-28T12:17:34.639Z,71.80
2018-06-28T12:20:02.974Z,74.80
2018-06-28T12:22:31.237Z,70.40
2018-06-28T12:24:59.483Z,71.40
2018-06-28T12:27:27.738Z,73.10
2018-06-28T12:29:55.955Z,74.20
2018-06-28T12:32:24.212Z,72.00
2018-06-28T12:34:52.474Z,71.60
2018-06-28T12:37:20.687Z,70.00
2018-06-28T12:39:48.925Z,68.80
2018-06-28T12:42:17.221Z,70.30
2018-06-28T12:44:45.471Z,69.10
2018-06-28T12:48:05.335Z,71.30
2018-06-28T12:50:33.843Z,69.50
2018-06-28T12:53:04.160Z,70.10
2018-06-28T12:56:46.929Z,70.00
2018-06-28T12:59:16.558Z,68.20
2018-06-28T13:01:45.067Z,68.70
2018-06-28T13:04:13.337Z,70.80
2018-06-28T13:06:41.627Z,71.30
2018-06-28T13:09:12.900Z,71.50
2018-06-28T13:11:41.187Z,69.70
2018-06-28T13:14:09.421Z,71.70
2018-06-28T13:16:37.694Z,73.20
2018-06-28T13:19:06.010Z,72.00
2018-06-28T13:21:34.253Z,72.80
2018-06-28T13:24:02.606Z,74.10
2018-06-28T13:26:30.896Z,71.20
2018-06-28T13:28:59.125Z,72.80
2018-06-28T13:31:27.329Z,73.90
2018-06-28T13:33:55.640Z,74.30
2018-06-28T13:36:23.854Z,74.50
2018-06-28T13:38:52.086Z,75.10
2018-06-28T13:41:20.724Z,76.10
2018-06-28T13:43:48.880Z,77.00
2018-06-28T13:46:17.136Z,78.20
2018-06-28T13:48:45.440Z,76.10
2018-06-28T13:53:41.658Z,79.20
2018-06-28T13:56:09.938Z,79.80
2018-06-28T13:58:38.269Z,80.00
2018-06-28T14:01:06.552Z,81.10
2018-06-28T14:03:34.795Z,78.90
2018-06-28T14:06:03.035Z,80.40
2018-06-28T14:08:31.262Z,82.40
2018-06-28T14:10:59.467Z,79.70
2018-06-28T14:13:27.674Z,81.90
2018-06-28T14:15:57.417Z,80.40
2018-06-28T14:18:25.617Z,81.30
2018-06-28T14:20:53.857Z,82.60
2018-06-28T14:23:22.915Z,83.20
2018-06-28T14:25:51.803Z,84.10
2018-06-28T14:28:20.260Z,82.70
2018-06-28T14:30:48.548Z,84.20
2018-06-28T14:33:16.738Z,85.70
2018-06-28T14:35:44.947Z,85.10
2018-06-28T14:38:13.198Z,84.60
2018-06-28T14:40:41.417Z,84.10
2018-06-28T14:43:09.637Z,84.90
2018-06-28T14:45:37.863Z,85.00
2018-06-28T14:48:06.123Z,85.80
2018-06-28T14:50:34.471Z,84.00
2018-06-28T14:53:02.643Z,86.40
2018-06-28T14:55:31.038Z,85.20
2018-06-28T14:58:00.759Z,87.00
2018-06-28T15:00:29.142Z,88.80
2018-06-28T15:02:57.344Z,89.90
2018-06-28T15:05:25.571Z,90.00
2018-06-28T15:07:53.847Z,89.90
2018-06-28T15:10:22.134Z,90.40
2018-06-28T15:12:50.498Z,90.00
2018-06-28T15:15:18.733Z,90.50
2018-06-28T15:17:47.097Z,90.50
2018-06-28T15:20:15.497Z,89.50
2018-06-28T15:22:43.704Z,89.80
2018-06-28T15:25:11.990Z,90.30
2018-06-28T15:27:40.325Z,90.10
2018-06-28T15:30:08.839Z,90.10
2018-06-28T15:32:37.106Z,91.30
2018-06-28T15:35:05.462Z,91.50
2018-06-28T15:37:33.804Z,91.10
2018-06-28T15:40:02.054Z,91.70
2018-06-28T15:42:30.295Z,91.80
2018-06-28T15:44:58.567Z,92.10
2018-06-28T15:47:27.070Z,91.80
2018-06-28T15:49:55.346Z,91.30
2018-06-28T15:52:23.601Z,91.20
2018-06-28T15:54:51.856Z,90.90
2018-06-28T15:57:20.096Z,90.40
2018-06-28T15:59:48.321Z,90.70
2018-06-28T16:04:44.610Z,91.40
2018-06-28T16:07:12.892Z,91.00
2018-06-28T16:09:41.632Z,92.10
2018-06-28T16:12:09.850Z,91.90
2018-06-28T16:14:38.050Z,92.00
2018-06-28T16:17:06.318Z,92.20
2018-06-28T16:19:34.522Z,92.60
2018-06-28T16:22:02.729Z,91.90
2018-06-28T16:24:30.934Z,91.60
2018-06-28T16:26:59.178Z,91.30
2018-06-28T16:29:27.422Z,91.90
2018-06-28T16:31:55.756Z,91.70
2018-06-28T16:34:24.017Z,91.90
2018-06-28T16:36:52.235Z,91.50
2018-06-28T16:39:20.534Z,92.20
2018-06-28T16:41:48.690Z,91.50
2018-06-28T16:44:16.882Z,92.00
2018-06-28T16:46:45.180Z,91.80
2018-06-28T16:49:13.427Z,91.60
2018-06-28T16:51:43.322Z,91.40
2018-06-28T16:54:11.507Z,91.40
2018-06-28T16:56:39.686Z,92.40
2018-06-28T16:59:07.921Z,92.20
2018-06-28T17:04:04.755Z,92.80
2018-06-28T17:06:32.978Z,92.70
2018-06-28T17:09:01.227Z,92.80
2018-06-28T17:11:29.622Z,92.70
2018-06-28T17:13:57.882Z,93.30
2018-06-28T17:16:26.195Z,93.30
2018-06-28T17:18:54.590Z,92.50
2018-06-28T17:21:22.843Z,92.80
2018-06-28T17:23:51.110Z,92.60
2018-06-28T17:26:19.360Z,92.70
2018-06-28T17:28:47.628Z,92.70
2018-06-28T17:31:15.833Z,92.80
2018-06-28T17:33:44.096Z,92.80
2018-06-28T17:36:12.296Z,93.10
2018-06-28T17:38:40.536Z,93.40
2018-06-28T17:41:08.842Z,93.50
2018-06-28T17:43:37.097Z,93.50
2018-06-28T17:46:05.358Z,92.80
2018-06-28T17:48:33.674Z,92.90
2018-06-28T17:51:02.003Z,93.20
2018-06-28T17:53:30.137Z,93.30
2018-06-28T17:55:58.395Z,93.70
2018-06-28T17:58:26.747Z,93.20
2018-06-28T18:00:54.947Z,93.30
2018-06-28T18:03:23.168Z,93.80
2018-06-28T18:05:51.499Z,93.90
2018-06-28T18:08:20.066Z,94.30
2018-06-28T18:10:48.775Z,94.40
2018-06-28T18:13:17.050Z,94.80
2018-06-28T18:15:45.297Z,94.50
2018-06-28T18:18:13.554Z,93.50
2018-06-28T18:20:41.927Z,93.50
2018-06-28T18:25:38.071Z,93.40
2018-06-28T18:28:06.279Z,93.80
2018-06-28T18:30:34.479Z,93.90
2018-06-28T18:33:02.735Z,94.30
2018-06-28T18:35:30.988Z,94.80
2018-06-28T18:37:59.273Z,94.80
2018-06-28T18:40:27.471Z,94.90
2018-06-28T18:42:55.745Z,94.90
2018-06-28T18:45:23.990Z,95.00
2018-06-28T18:47:52.309Z,95.10
2018-06-28T18:50:20.577Z,94.90
2018-06-28T18:52:48.816Z,94.90
2018-06-28T18:55:17.406Z,95.30
2018-06-28T18:57:45.605Z,95.40
2018-06-28T19:00:13.790Z,95.70
2018-06-28T19:02:42.035Z,95.60
2018-06-28T19:07:38.306Z,95.40
2018-06-28T19:10:12.127Z,95.60
2018-06-28T19:12:40.348Z,95.40
2018-06-28T19:15:13.894Z,95.30
2018-06-28T19:17:42.133Z,95.50
2018-06-28T19:20:10.410Z,95.40
2018-06-28T19:22:44.126Z,95.40
2018-06-28T19:25:12.418Z,95.10
2018-06-28T19:27:40.675Z,95.20
2018-06-28T19:30:14.330Z,95.50
2018-06-28T19:32:42.517Z,95.00
2018-06-28T19:35:10.799Z,95.20
2018-06-28T19:37:44.510Z,95.20
2018-06-28T19:40:18.263Z,95.40
2018-06-28T19:42:51.898Z,95.10
2018-06-28T19:45:20.086Z,95.00
2018-06-28T19:47:48.470Z,95.10
2018-06-28T19:50:22.109Z,95.10
2018-06-28T19:52:53.746Z,95.20
2018-06-28T19:55:22.262Z,95.30
2018-06-28T19:57:50.483Z,95.20
2018-06-28T20:00:23.969Z,94.90
2018-06-28T20:02:57.671Z,95.00
2018-06-28T20:05:25.850Z,95.20
2018-06-28T20:07:54.126Z,95.00
2018-06-28T20:10:22.366Z,94.90
2018-06-28T20:12:55.995Z,94.90
2018-06-28T20:15:41.188Z,94.90
2018-06-28T20:18:14.798Z,94.80
2018-06-28T20:20:43.019Z,94.90
2018-06-28T20:23:11.302Z,95.00
2018-06-28T20:25:39.557Z,95.10
2018-06-28T20:28:13.158Z,95.10
2018-06-28T20:30:46.810Z,95.20
2018-06-28T20:33:20.499Z,95.10
2018-06-28T20:35:48.814Z,94.90
2018-06-28T20:38:17.075Z,94.60
2018-06-28T20:40:45.366Z,94.50
2018-06-28T20:43:13.663Z,94.80
2018-06-28T20:45:41.898Z,94.90
2018-06-28T20:48:10.210Z,95.50
2018-06-28T20:50:38.520Z,95.20
2018-06-28T20:53:06.782Z,95.10
2018-06-28T20:55:35.237Z,95.10
2018-06-28T20:58:03.497Z,95.30
2018-06-28T21:00:31.746Z,95.50
2018-06-28T21:02:59.996Z,95.40
2018-06-28T21:05:28.256Z,95.50
2018-06-28T21:07:57.062Z,95.60
2018-06-28T21:10:25.515Z,95.40
2018-06-28T21:12:53.725Z,95.80
2018-06-28T21:15:22.190Z,95.70
2018-06-28T21:17:50.598Z,95.70
2018-06-28T21:20:18.816Z,96.00
2018-06-28T21:22:47.518Z,95.80
2018-06-28T21:25:16.922Z,95.80
2018-06-28T21:27:45.129Z,95.80
2018-06-28T21:30:13.764Z,95.70
2018-06-28T21:32:41.999Z,95.80
2018-06-28T21:35:10.206Z,95.90
2018-06-28T21:37:38.734Z,95.90
2018-06-28T21:40:06.938Z,95.60
2018-06-28T21:42:35.251Z,95.50
2018-06-28T21:47:31.470Z,95.80
2018-06-28T21:49:59.654Z,95.70
2018-06-28T21:52:34.155Z,95.80
2018-06-28T21:55:02.383Z,95.50
2018-06-28T21:57:30.590Z,95.20
2018-06-28T21:59:58.852Z,95.30
2018-06-28T22:02:27.086Z,95.20
2018-06-28T22:04:55.358Z,95.30
2018-06-28T22:07:23.611Z,95.20
2018-06-28T22:09:51.864Z,94.90
2018-06-28T22:12:20.155Z,94.50
2018-06-28T22:14:48.426Z,94.60
2018-06-28T22:17:16.655Z,94.70
2018-06-28T22:19:44.901Z,94.50
2018-06-28T22:22:13.162Z,94.50
2018-06-28T22:24:41.435Z,94.00
2018-06-28T22:27:09.712Z,94.30
2018-06-28T22:29:38.200Z,94.40
2018-06-28T22:32:06.486Z,94.40
2018-06-28T22:34:34.732Z,94.60
2018-06-28T22:37:02.992Z,94.40
2018-06-28T22:39:31.239Z,94.20
2018-06-28T22:41:59.486Z,94.10
2018-06-28T22:44:28.644Z,93.90
2018-06-28T22:46:56.889Z,93.20
2018-06-28T22:49:25.209Z,93.40
2018-06-28T22:51:53.439Z,93.40
2018-06-28T22:54:21.715Z,93.50
2018-06-28T22:56:49.938Z,93.20
2018-06-28T22:59:18.190Z,93.30
2018-06-28T23:01:46.486Z,93.30
2018-06-28T23:04:14.732Z,92.70
2018-06-28T23:06:42.963Z,93.00
2018-06-28T23:09:11.759Z,92.90
2018-06-28T23:14:07.945Z,92.50
2018-06-28T23:16:36.225Z,93.40
2018-06-28T23:19:04.549Z,93.70
2018-06-28T23:21:32.751Z,93.70
2018-06-28T23:24:01.001Z,93.50
2018-06-28T23:26:29.179Z,93.70
2018-06-28T23:28:57.394Z,93.50
2018-06-28T23:31:25.638Z,93.60
2018-06-28T23:33:53.883Z,93.50
2018-06-28T23:36:22.106Z,93.40
2018-06-28T23:38:50.374Z,93.40
2018-06-28T23:41:18.592Z,93.10
2018-06-28T23:43:46.795Z,92.90
2018-06-28T23:46:15.145Z,92.90
2018-06-28T23:48:43.546Z,92.80
2018-06-28T23:51:11.619Z,92.90
2018-06-28T23:53:39.871Z,92.50
2018-06-28T23:56:08.088Z,92.50
2018-06-28T23:58:36.340Z,92.70
